GCRR/ACE METAR and TAF weather

Enter ICAO airport designator
Station Type Date Time Source
GCRR METAR 2019/08/24 09:30 UTC NOAA

GCRR 240930Z 36012KT 330V040 9999 FEW018 28/20 Q1014


Station Type Date Time Source
GCRR Decoded METAR 2019/08/24 09:30 UTC NOAA

Station name not available
Aug 24, 2019 - 05:30 AM EDT / 2019.08.24 0930 UTC
Wind: from the N (360 degrees) at 14 MPH (12 KT) (direction variable):0
Visibility: greater than 7 mile(s):0
Sky conditions: mostly clear
Temperature: 82 F (28 C)
Dew Point: 68 F (20 C)
Relative Humidity: 61%
Pressure (altimeter): 29.94 in. Hg (1014 hPa)
ob: GCRR 240930Z 36012KT 330V040 9999 FEW018 28/20 Q1014
cycle: 9

Station Type Date Time Source
GCRR TAF 2019/08/24 09:27 UTC NOAA

TAF GCRR 240800Z 2409/2509 05016KT 9000 NSC TX34/2414Z TN22/2505Z PROB30
TEMPO 2409/2412 22006KT
BECMG 2417/2419 35022KT PROB40
TEMPO 2418/2422 35022G32KT

Example: see airport list